Time;durP1;ratioP1;P1;durP2;ratioP2;P2;SDS_P1;SDS_P2;PMS_P1;PMS_P2;Temp;Humidity;BMP_temperature;BMP_pressure;BME280_temperature;BME280_humidity;BME280_pressure;Samples;Min_cycle;Max_cycle;Signal;HPM_P1;HPM_P2
2022/01/20 00:01:02;;;;;;;0.10;0.10;;;;;;;8.22;61.78;102586.25;5072516;28;20139;-83
2022/01/20 00:03:32;;;;;;;0.10;0.10;;;;;;;8.23;61.19;102586.25;5072754;28;20031;-83
2022/01/20 00:28:15;;;;;;;0.10;0.10;;;;;;;8.04;61.10;102616.72;5040011;28;20153;-86
2022/01/20 00:30:54;;;;;;;0.20;0.20;;;;;;;8.13;60.71;102615.13;5047833;28;20060;-84
2022/01/20 00:38:50;;;;;;;0.20;0.20;;;;;;;8.07;60.54;102614.16;5079942;27;20413;-86
2022/01/20 00:41:17;;;;;;;0.10;0.10;;;;;;;8.05;60.97;102607.94;5064340;28;20079;-84
2022/01/20 00:43:43;;;;;;;0.10;0.10;;;;;;;8.14;60.80;102606.31;5067105;28;20033;-83
2022/01/20 00:46:10;;;;;;;0.15;0.15;;;;;;;8.06;61.67;102598.28;5054202;28;20034;-83
2022/01/20 00:48:36;;;;;;;0.17;0.17;;;;;;;8.13;61.46;102605.44;5044992;28;20143;-83
2022/01/20 00:51:03;;;;;;;0.10;0.10;;;;;;;8.07;61.32;102606.25;5047442;28;20036;-89
2022/01/20 00:53:29;;;;;;;0.10;0.10;;;;;;;8.07;61.07;102613.25;5046219;28;20047;-84
2022/01/20 00:55:56;;;;;;;0.10;0.10;;;;;;;8.10;60.88;102616.84;5044620;28;20032;-85
2022/01/20 00:58:22;;;;;;;0.20;0.20;;;;;;;8.18;60.46;102618.75;5044649;28;20033;-83
2022/01/20 01:00:49;;;;;;;0.10;0.10;;;;;;;8.15;60.51;102623.94;5046400;28;20059;-83
2022/01/20 01:03:15;;;;;;;0.10;0.10;;;;;;;8.13;60.21;102620.41;5046410;28;20037;-84
2022/01/20 01:05:57;;;;;;;0.10;0.10;;;;;;;8.31;59.02;102620.75;5042075;28;20060;-84
2022/01/20 01:08:23;;;;;;;0.20;0.20;;;;;;;8.33;59.30;102623.41;5044769;28;20029;-84
2022/01/20 01:10:53;;;;;;;0.10;0.10;;;;;;;8.35;58.96;102626.94;5045260;28;20034;-84
2022/01/20 01:13:21;;;;;;;0.20;0.20;;;;;;;8.33;59.37;102631.34;5041931;28;20064;-86
2022/01/20 01:15:51;;;;;;;0.10;0.10;;;;;;;8.39;59.39;102629.69;5048325;28;20030;-84
2022/01/20 01:23:51;;;;;;;0.10;0.10;;;;;;;8.40;59.75;102615.63;5054252;27;20929;-83
2022/01/20 01:26:20;;;;;;;0.20;0.20;;;;;;;8.48;60.00;102613.13;5031058;28;20087;-83
2022/01/20 01:28:46;;;;;;;0.10;0.10;;;;;;;8.43;60.74;102620.94;5021345;28;20076;-83
2022/01/20 01:31:44;;;;;;;0.10;0.10;;;;;;;8.35;60.80;102619.03;5013667;28;20041;-84
2022/01/20 01:34:11;;;;;;;0.10;0.10;;;;;;;8.24;60.88;102618.84;5015502;28;20388;-85
2022/01/20 01:37:34;;;;;;;0.10;0.10;;;;;;;8.36;60.85;102621.72;5020694;28;20029;-84
2022/01/20 01:39:24;;;;;;;0.00;0.00;;;;;;;8.44;60.96;102632.41;5020242;28;20041;-83
2022/01/20 01:41:50;;;;;;;0.10;0.10;;;;;;;8.44;61.31;102616.56;5011979;28;20517;-86
2022/01/20 01:44:23;;;;;;;0.10;0.10;;;;;;;8.39;60.85;102621.75;5020873;28;20413;-83
2022/01/20 01:46:49;;;;;;;;;;;;;;;8.56;61.33;102621.19;5014556;28;20030;-83
2022/01/20 01:49:17;;;;;;;0.10;0.10;;;;;;;8.42;61.44;102629.75;5018044;28;20000;-83
2022/01/20 01:51:43;;;;;;;0.13;0.13;;;;;;;8.36;61.53;102634.03;5019713;28;20038;-83
2022/01/20 01:54:13;;;;;;;0.10;0.10;;;;;;;8.29;61.87;102643.59;5022689;28;20037;-83
2022/01/20 01:56:40;;;;;;;0.10;0.10;;;;;;;8.24;61.73;102635.56;5034024;28;20033;-84
2022/01/20 01:59:07;;;;;;;0.10;0.10;;;;;;;8.25;61.87;102641.78;5021976;28;20019;-83
2022/01/20 02:01:37;;;;;;;0.10;0.10;;;;;;;8.25;61.82;102642.66;5017145;28;20022;-90
2022/01/20 02:04:16;;;;;;;0.10;0.10;;;;;;;8.25;61.51;102631.22;5019028;28;20108;-83
2022/01/20 02:18:36;;;;;;;1.15;1.08;;;;;;;8.11;61.19;102638.84;5057371;28;20041;-85
2022/01/20 02:20:32;;;;;;;0.10;0.10;;;;;;;8.07;60.55;102635.28;5056954;28;20052;-84
2022/01/20 02:22:58;;;;;;;0.10;0.10;;;;;;;8.04;60.00;102627.28;5063031;28;20099;-90
2022/01/20 02:25:30;;;;;;;0.10;0.10;;;;;;;7.98;60.14;102636.84;5058589;28;20047;-88
2022/01/20 02:27:59;;;;;;;0.20;0.20;;;;;;;8.01;59.53;102626.34;5052866;28;20068;-84
2022/01/20 02:30:28;;;;;;;0.10;0.10;;;;;;;7.99;59.24;102622.75;5053433;28;20032;-83
2022/01/20 02:32:56;;;;;;;0.10;0.10;;;;;;;7.99;59.17;102614.84;5052439;28;20033;-84
2022/01/20 02:35:27;;;;;;;0.10;0.10;;;;;;;7.97;59.18;102612.19;5052649;28;20480;-85
2022/01/20 02:38:00;;;;;;;0.10;0.10;;;;;;;7.87;58.63;102626.94;5053589;28;20044;-85
2022/01/20 02:44:49;;;;;;;0.10;0.10;;;;;;;7.97;58.18;102624.50;5052605;28;20536;-84
2022/01/20 02:46:06;;;;;;;0.10;0.10;;;;;;;7.97;58.32;102614.81;5053251;28;20140;-88
2022/01/20 02:48:33;;;;;;;0.10;0.10;;;;;;;7.98;57.76;102627.16;5052195;28;20032;-85
2022/01/20 02:50:59;;;;;;;0.10;0.10;;;;;;;7.91;57.89;102617.34;5056152;28;20037;-85
2022/01/20 02:53:25;;;;;;;4.25;3.83;;;;;;;7.89;57.65;102621.72;5059325;28;20087;-85
2022/01/20 02:55:53;;;;;;;0.10;0.10;;;;;;;8.00;57.42;102616.63;5054972;28;20530;-90
2022/01/20 02:58:20;;;;;;;0.13;0.13;;;;;;;8.04;57.21;102621.13;5061361;28;20060;-84
2022/01/20 03:00:46;;;;;;;0.20;0.20;;;;;;;8.06;57.58;102622.03;5058045;28;20083;-85
2022/01/20 03:03:13;;;;;;;0.10;0.10;;;;;;;8.05;57.69;102613.22;5053081;28;20112;-84
2022/01/20 03:05:39;;;;;;;0.47;0.47;;;;;;;8.06;57.63;102615.03;5058089;28;20486;-84
2022/01/20 03:08:05;;;;;;;0.10;0.10;;;;;;;8.06;57.44;102619.38;5057520;28;20037;-84
2022/01/20 03:10:32;;;;;;;0.10;0.10;;;;;;;8.07;57.66;102608.88;5054635;28;20503;-85
2022/01/20 03:12:58;;;;;;;0.10;0.10;;;;;;;8.18;57.95;102613.47;5060940;28;20373;-86
2022/01/20 03:15:25;;;;;;;0.10;0.10;;;;;;;8.20;57.87;102617.00;5054123;28;20075;-85
2022/01/20 03:17:52;;;;;;;0.30;0.30;;;;;;;8.03;57.80;102622.88;5054359;28;20107;-85
2022/01/20 03:20:18;;;;;;;0.20;0.20;;;;;;;7.99;57.71;102623.69;5056007;28;20029;-85
2022/01/20 03:22:44;;;;;;;0.10;0.10;;;;;;;8.13;58.49;102625.69;5049352;28;20050;-84
2022/01/20 03:25:12;;;;;;;0.10;0.10;;;;;;;8.17;58.26;102635.44;5043974;28;20365;-86
2022/01/20 03:27:38;;;;;;;0.10;0.10;;;;;;;8.09;58.32;102641.47;5042929;28;20080;-84
2022/01/20 03:30:07;;;;;;;0.10;0.10;;;;;;;8.06;59.11;102648.44;5040820;28;20404;-85
2022/01/20 03:32:34;;;;;;;0.20;0.20;;;;;;;8.20;59.13;102639.03;5045654;28;20029;-89
2022/01/20 03:35:03;;;;;;;0.10;0.10;;;;;;;8.24;58.84;102640.84;5037258;28;20033;-84
2022/01/20 03:37:30;;;;;;;0.10;0.10;;;;;;;8.15;59.56;102635.41;5039184;28;20025;-86
2022/01/20 03:39:56;;;;;;;0.20;0.20;;;;;;;8.27;59.33;102634.75;5046155;28;20029;-85
2022/01/20 03:42:22;;;;;;;0.10;0.10;;;;;;;8.20;60.08;102638.13;5039481;28;20021;-84
2022/01/20 03:44:48;;;;;;;0.10;0.10;;;;;;;8.15;59.71;102635.41;5037833;28;20029;-87
2022/01/20 03:47:15;;;;;;;0.20;0.20;;;;;;;8.14;59.61;102653.84;5036966;28;20021;-85
2022/01/20 03:52:28;;;;;;;0.15;0.15;;;;;;;7.99;60.07;102651.81;5040454;28;20052;-88
2022/01/20 03:54:54;;;;;;;0.10;0.10;;;;;;;7.96;61.02;102665.84;5042096;28;20507;-85
2022/01/20 03:57:21;;;;;;;0.10;0.10;;;;;;;7.97;61.52;102670.25;5037706;28;20391;-84
2022/01/20 03:59:47;;;;;;;0.20;0.20;;;;;;;7.93;61.56;102671.06;5040554;28;20115;-89
2022/01/20 04:02:14;;;;;;;0.10;0.10;;;;;;;7.91;61.55;102678.03;5040551;28;20550;-84
2022/01/20 04:04:41;;;;;;;0.10;0.10;;;;;;;7.69;63.21;102685.53;5043409;28;20048;-81
2022/01/20 04:07:14;;;;;;;0.10;0.10;;;;;;;7.57;64.13;102682.63;5041371;28;20033;-82
2022/01/20 04:09:51;;;;;;;0.20;0.20;;;;;;;7.60;63.67;102693.22;5042494;28;20033;-81
2022/01/20 04:12:25;;;;;;;0.10;0.10;;;;;;;7.38;64.13;102692.75;5043319;28;20374;-82
2022/01/20 04:14:51;;;;;;;0.10;0.10;;;;;;;7.31;64.79;102706.63;5046159;28;20120;-83
2022/01/20 04:17:19;;;;;;;0.20;0.20;;;;;;;7.25;64.96;102685.41;5035752;28;20104;-83
2022/01/20 04:19:46;;;;;;;0.22;0.22;;;;;;;7.13;65.19;102688.66;5036761;28;20124;-86
2022/01/20 04:22:13;;;;;;;0.13;0.13;;;;;;;7.01;65.80;102683.09;5035458;28;20033;-83
2022/01/20 04:24:39;;;;;;;0.10;0.10;;;;;;;7.03;65.01;102684.91;5037768;28;20030;-90
2022/01/20 04:27:06;;;;;;;0.15;0.15;;;;;;;6.94;65.61;102687.28;5037237;28;20357;-90
2022/01/20 04:29:34;;;;;;;0.10;0.10;;;;;;;6.94;65.50;102697.84;5035597;28;20434;-82
2022/01/20 04:32:00;;;;;;;0.10;0.10;;;;;;;6.97;65.07;102696.16;5034878;28;20043;-84
2022/01/20 04:34:26;;;;;;;0.10;0.10;;;;;;;6.95;65.57;102711.06;5045313;28;20116;-83
2022/01/20 04:36:54;;;;;;;0.10;0.10;;;;;;;6.98;65.58;102712.88;5046736;28;20033;-82
2022/01/20 04:39:24;;;;;;;0.20;0.20;;;;;;;6.87;65.78;102715.25;5045382;28;20434;-84
2022/01/20 04:41:52;;;;;;;0.10;0.10;;;;;;;6.88;65.39;102724.03;5037339;28;20102;-82
2022/01/20 04:44:34;;;;;;;0.10;0.10;;;;;;;6.88;65.72;102729.31;5035946;28;20029;-83
2022/01/20 04:47:13;;;;;;;0.20;0.20;;;;;;;6.77;66.18;102734.31;5039280;28;20037;-83
2022/01/20 04:58:01;;;;;;;0.10;0.10;;;;;;;7.00;65.28;102741.91;5043413;28;20045;-83
2022/01/20 05:00:28;;;;;;;0.10;0.10;;;;;;;6.99;65.28;102743.66;5044109;28;20051;-83
2022/01/20 05:02:54;;;;;;;0.10;0.10;;;;;;;6.96;65.55;102751.47;5035986;28;20044;-82
2022/01/20 05:05:25;;;;;;;0.10;0.10;;;;;;;7.03;65.32;102774.50;5042540;28;20113;-84
2022/01/20 05:07:51;;;;;;;0.10;0.10;;;;;;;7.01;65.09;102765.66;5039363;28;20038;-84
2022/01/20 05:10:17;;;;;;;0.17;0.17;;;;;;;6.99;65.40;102767.38;5039985;28;20030;-86
2022/01/20 05:15:36;;;;;;;0.20;0.20;;;;;;;6.95;65.06;102766.41;5067200;28;20405;-82
2022/01/20 05:18:03;;;;;;;0.10;0.10;;;;;;;6.94;64.61;102764.63;5051940;28;20053;-85
2022/01/20 05:20:29;;;;;;;0.52;0.52;;;;;;;6.94;64.36;102766.34;5053940;28;20041;-82
2022/01/20 05:22:55;;;;;;;0.10;0.10;;;;;;;6.97;63.75;102774.34;5054298;28;20377;-83
2022/01/20 05:25:22;;;;;;;0.10;0.10;;;;;;;6.93;63.73;102785.69;5058321;28;20123;-82
2022/01/20 05:27:49;;;;;;;0.10;0.10;;;;;;;6.82;62.18;102787.09;5054506;28;20435;-83
2022/01/20 05:30:15;;;;;;;0.10;0.10;;;;;;;6.83;61.74;102783.63;5052644;28;20099;-82
2022/01/20 05:32:41;;;;;;;0.10;0.10;;;;;;;6.88;60.94;102792.53;5054045;28;20037;-82
2022/01/20 05:35:08;;;;;;;0.20;0.20;;;;;;;6.83;60.73;102778.34;5058924;28;20042;-82
2022/01/20 05:37:35;;;;;;;0.10;0.10;;;;;;;6.83;60.43;102781.00;5058893;28;20497;-82
2022/01/20 05:40:03;;;;;;;3.60;0.70;;;;;;;6.93;60.46;102788.31;5055004;28;20124;-84
2022/01/20 05:42:29;;;;;;;0.10;0.10;;;;;;;6.82;58.81;102792.38;5058923;28;20039;-83
2022/01/20 05:44:55;;;;;;;0.20;0.20;;;;;;;6.91;59.88;102800.53;5053043;28;20555;-83
2022/01/20 05:47:27;;;;;;;0.10;0.10;;;;;;;6.91;58.42;102803.19;5056892;28;20033;-84
2022/01/20 05:49:56;;;;;;;0.20;0.20;;;;;;;6.91;58.15;102798.78;5053256;28;20029;-83
2022/01/20 05:52:22;;;;;;;0.13;0.13;;;;;;;6.89;58.50;102803.16;5065702;28;20036;-83
2022/01/20 05:54:49;;;;;;;0.10;0.10;;;;;;;6.85;58.12;102811.78;5060601;28;20091;-83
2022/01/20 05:57:18;;;;;;;0.10;0.10;;;;;;;6.84;57.35;102811.75;5060622;28;20060;-83
2022/01/20 05:59:44;;;;;;;0.10;0.10;;;;;;;6.84;56.21;102824.94;5056955;28;20028;-83
2022/01/20 06:02:26;;;;;;;0.25;0.25;;;;;;;6.96;57.37;102825.28;5054220;28;20082;-83
2022/01/20 06:04:52;;;;;;;0.10;0.10;;;;;;;7.01;57.31;102836.81;5056085;28;20047;-83
2022/01/20 06:07:20;;;;;;;0.20;0.20;;;;;;;6.95;57.22;102826.13;5054778;28;20445;-83
2022/01/20 06:09:46;;;;;;;0.10;0.10;;;;;;;6.95;56.52;102824.41;5054014;28;20459;-86
2022/01/20 06:12:13;;;;;;;0.10;0.10;;;;;;;6.91;56.15;102821.63;5057160;28;20025;-85
2022/01/20 06:14:39;;;;;;;0.10;0.10;;;;;;;7.03;56.80;102827.22;5052886;28;20037;-83
2022/01/20 06:17:05;;;;;;;0.10;0.10;;;;;;;7.05;56.42;102828.19;5058334;28;20032;-84
2022/01/20 06:19:31;;;;;;;1.88;1.77;;;;;;;6.93;55.87;102817.31;5060948;28;20075;-84
2022/01/20 06:21:57;;;;;;;0.10;0.10;;;;;;;7.05;56.05;102819.34;5058213;28;20029;-83
2022/01/20 06:24:23;;;;;;;0.10;0.10;;;;;;;7.03;55.98;102829.88;5060538;28;20488;-85
2022/01/20 06:26:49;;;;;;;0.10;0.10;;;;;;;7.06;56.37;102824.66;5049304;28;20048;-82
2022/01/20 06:29:16;;;;;;;0.10;0.10;;;;;;;7.05;56.51;102833.44;5051752;28;20029;-82
2022/01/20 06:31:42;;;;;;;0.10;0.10;;;;;;;7.04;56.31;102836.94;5047326;28;20025;-83
2022/01/20 06:34:08;;;;;;;0.10;0.10;;;;;;;7.06;55.84;102853.66;5050616;28;20120;-83
2022/01/20 06:36:34;;;;;;;0.20;0.20;;;;;;;7.09;56.07;102856.38;5048545;28;20104;-83
2022/01/20 06:39:00;;;;;;;0.10;0.10;;;;;;;7.10;55.72;102858.19;5050601;28;20531;-83
2022/01/20 06:41:27;;;;;;;0.10;0.10;;;;;;;7.12;56.55;102861.72;5042273;28;20067;-83
2022/01/20 06:43:53;;;;;;;0.10;0.10;;;;;;;6.95;56.73;102863.00;5049067;28;20052;-82
2022/01/20 06:46:19;;;;;;;0.10;0.10;;;;;;;6.82;56.37;102855.59;5048427;28;20043;-83
2022/01/20 06:48:46;;;;;;;0.15;0.15;;;;;;;6.97;56.82;102859.56;5046132;28;20053;-83
2022/01/20 06:51:12;;;;;;;0.10;0.10;;;;;;;6.92;55.70;102870.84;5049979;28;20059;-82
2022/01/20 06:53:38;;;;;;;0.10;0.10;;;;;;;6.89;56.03;102871.66;5048053;28;20100;-82
2022/01/20 06:56:04;;;;;;;0.10;0.10;;;;;;;6.83;55.88;102882.03;5048347;28;20103;-82
2022/01/20 06:58:32;;;;;;;0.10;0.10;;;;;;;6.74;55.65;102893.19;5049100;28;20043;-82
2022/01/20 07:00:58;;;;;;;0.20;0.20;;;;;;;6.71;55.83;102892.22;5045269;28;20025;-82
2022/01/20 07:03:24;;;;;;;0.10;0.10;;;;;;;6.73;55.81;102894.03;5053214;28;20087;-80
2022/01/20 07:05:50;;;;;;;0.10;0.10;;;;;;;6.71;56.01;102893.09;5046805;28;20050;-82
2022/01/20 07:08:16;;;;;;;0.00;0.00;;;;;;;6.62;56.25;102900.75;5044236;28;20052;-81
2022/01/20 07:10:42;;;;;;;0.10;0.10;;;;;;;6.62;56.51;102908.66;5052443;28;20441;-84
2022/01/20 07:13:08;;;;;;;0.10;0.10;;;;;;;6.57;56.63;102911.13;5047585;28;20086;-84
2022/01/20 07:15:35;;;;;;;0.10;0.10;;;;;;;6.55;56.90;102930.38;5041300;28;20420;-83
2022/01/20 07:18:01;;;;;;;0.10;0.10;;;;;;;6.25;57.61;102955.78;5047753;28;20503;-83
2022/01/20 07:20:28;;;;;;;0.10;0.10;;;;;;;6.32;57.83;102938.47;5039654;28;20044;-87
2022/01/20 07:22:54;;;;;;;0.10;0.10;;;;;;;6.34;58.36;102918.31;5048727;28;20116;-83
2022/01/20 07:25:25;;;;;;;0.10;0.10;;;;;;;6.28;58.87;102902.31;5051496;28;20120;-82
2022/01/20 07:27:51;;;;;;;0.22;0.22;;;;;;;6.30;58.39;102914.69;5043988;28;20028;-84
2022/01/20 07:30:17;;;;;;;0.20;0.20;;;;;;;6.22;58.50;102915.31;5050451;28;20029;-84
2022/01/20 07:32:44;;;;;;;0.20;0.20;;;;;;;6.09;58.71;102912.31;5051399;28;20059;-84
2022/01/20 07:35:10;;;;;;;0.32;0.32;;;;;;;6.03;58.94;102909.47;5045156;28;20045;-84
2022/01/20 07:37:36;;;;;;;0.10;0.10;;;;;;;6.01;59.19;102913.78;5049214;28;20108;-84
2022/01/20 07:40:02;;;;;;;0.10;0.10;;;;;;;5.97;58.84;102918.03;5052967;28;20439;-85
2022/01/20 07:42:28;;;;;;;0.10;0.10;;;;;;;6.08;58.68;102925.41;5046741;28;20495;-83
2022/01/20 07:44:55;;;;;;;0.10;0.10;;;;;;;6.14;58.63;102929.13;5042046;28;20037;-84
2022/01/20 07:47:21;;;;;;;0.10;0.10;;;;;;;6.19;58.78;102928.38;5049919;28;20116;-85
2022/01/20 07:49:47;;;;;;;0.10;0.10;;;;;;;6.20;58.74;102940.69;5042232;28;20028;-85
2022/01/20 07:52:14;;;;;;;0.10;0.10;;;;;;;6.15;58.05;102949.31;5047242;28;20112;-85
2022/01/20 07:54:40;;;;;;;0.10;0.10;;;;;;;6.11;58.08;102949.19;5042316;28;20036;-85
2022/01/20 07:57:07;;;;;;;0.20;0.20;;;;;;;6.03;57.65;102953.31;5042818;28;20029;-85
2022/01/20 07:59:34;;;;;;;0.10;0.10;;;;;;;6.11;57.46;102967.63;5046684;28;20415;-86
2022/01/20 08:02:00;;;;;;;0.20;0.20;;;;;;;6.21;57.34;102963.56;5035266;28;20029;-85
2022/01/20 08:04:26;;;;;;;0.10;0.10;;;;;;;6.19;57.61;102960.84;5044549;28;20033;-85
2022/01/20 08:06:52;;;;;;;0.13;0.13;;;;;;;6.27;57.03;102963.75;5048883;28;20123;-84
2022/01/20 08:09:18;;;;;;;0.10;0.10;;;;;;;6.23;57.60;102964.47;5048299;28;20021;-85
2022/01/20 08:11:44;;;;;;;0.20;0.20;;;;;;;6.18;57.01;102972.25;5046185;28;20403;-84
2022/01/20 08:14:10;;;;;;;0.10;0.10;;;;;;;6.06;56.49;102958.69;5039179;28;20041;-84
2022/01/20 08:16:37;;;;;;;0.20;0.20;;;;;;;6.09;56.63;102959.69;5047956;28;20036;-83
2022/01/20 08:19:03;;;;;;;0.10;0.10;;;;;;;6.13;56.27;102969.47;5036908;28;20488;-84
2022/01/20 08:21:29;;;;;;;0.17;0.17;;;;;;;6.19;56.51;102967.88;5042753;28;20384;-82
2022/01/20 08:23:55;;;;;;;0.13;0.13;;;;;;;6.25;56.75;102966.31;5037951;28;20033;-83
2022/01/20 08:26:23;;;;;;;0.10;0.10;;;;;;;6.30;56.10;102954.19;5037722;28;20037;-85
2022/01/20 08:28:49;;;;;;;0.10;0.10;;;;;;;6.37;55.40;102960.56;5039599;28;20029;-86
2022/01/20 08:31:16;;;;;;;0.10;0.10;;;;;;;6.44;55.57;102966.91;5035710;28;20037;-86
2022/01/20 08:33:42;;;;;;;0.20;0.20;;;;;;;6.52;55.91;102975.03;5040640;28;20503;-85
2022/01/20 08:36:08;;;;;;;0.10;0.10;;;;;;;6.54;55.14;102973.34;5038430;28;20385;-85
2022/01/20 08:38:34;;;;;;;0.10;0.10;;;;;;;6.63;55.88;102965.75;5040877;28;20087;-85
2022/01/20 08:41:01;;;;;;;0.10;0.10;;;;;;;6.60;54.91;102976.19;5039490;28;20491;-85
2022/01/20 08:43:27;;;;;;;0.10;0.10;;;;;;;6.67;55.45;102975.53;5037041;28;20041;-83
2022/01/20 08:45:53;;;;;;;0.10;0.10;;;;;;;6.73;55.83;102980.97;5038550;28;20025;-87
2022/01/20 08:48:20;;;;;;;0.10;0.10;;;;;;;6.62;54.20;102987.66;5040050;28;20045;-87
2022/01/20 08:50:46;;;;;;;2.47;2.28;;;;;;;6.72;54.54;102981.81;5040828;28;20033;-84
2022/01/20 08:53:13;;;;;;;0.10;0.10;;;;;;;6.79;54.64;102981.16;5046647;28;21541;-86
2022/01/20 08:55:39;;;;;;;0.10;0.10;;;;;;;6.79;54.78;102991.72;5047700;28;20108;-84
2022/01/20 08:58:06;;;;;;;0.10;0.10;;;;;;;6.83;54.58;103002.31;5041613;28;20021;-87
2022/01/20 09:00:35;;;;;;;0.10;0.10;;;;;;;6.91;54.52;102995.56;5038894;28;20024;-87
2022/01/20 09:03:02;;;;;;;0.10;0.10;;;;;;;6.91;54.16;103004.34;5032637;28;20091;-87
2022/01/20 09:05:28;;;;;;;0.10;0.10;;;;;;;7.02;54.53;103004.66;5031027;28;20041;-89
2022/01/20 09:07:59;;;;;;;0.10;0.10;;;;;;;7.06;53.52;103005.66;5036514;28;20029;-91
2022/01/20 09:10:25;;;;;;;0.10;0.10;;;;;;;7.04;52.96;103009.97;5033994;28;20041;-87
2022/01/20 09:15:40;;;;;;;0.10;0.10;;;;;;;7.19;52.96;103030.63;5035143;28;20448;-87
2022/01/20 09:18:08;;;;;;;0.10;0.10;;;;;;;7.20;52.62;103029.78;5040062;28;20502;-87
2022/01/20 09:20:37;;;;;;;0.20;0.20;;;;;;;7.28;52.61;103036.19;5044533;28;20037;-86
2022/01/20 09:23:05;;;;;;;0.10;0.10;;;;;;;7.30;52.11;103052.94;5058630;28;20052;-86
2022/01/20 09:25:33;;;;;;;0.10;0.10;;;;;;;7.45;52.00;103048.09;5056571;22;20080;-80
2022/01/20 09:28:00;;;;;;;0.10;0.10;;;;;;;7.43;52.87;103043.66;5049184;28;20029;-85
2022/01/20 09:30:27;;;;;;;0.10;0.10;;;;;;;7.50;52.72;103039.41;5048587;28;20569;-85
2022/01/20 09:33:01;;;;;;;0.10;0.10;;;;;;;7.58;52.27;103048.47;5050278;28;20036;-84
2022/01/20 09:35:32;;;;;;;0.10;0.10;;;;;;;7.56;52.48;103050.16;5049490;28;20467;-85
2022/01/20 09:37:58;;;;;;;0.10;0.10;;;;;;;7.59;52.30;103050.25;5049144;28;20464;-87
2022/01/20 09:40:25;;;;;;;0.10;0.10;;;;;;;7.65;51.90;103039.88;5045976;28;20119;-88
2022/01/20 09:42:59;;;;;;;0.10;0.10;;;;;;;7.71;52.50;103041.75;5047603;28;20048;-89
2022/01/20 09:45:26;;;;;;;0.10;0.10;;;;;;;7.67;52.80;103046.06;5046604;28;20036;-83
2022/01/20 09:47:54;;;;;;;0.20;0.20;;;;;;;7.66;52.19;103040.75;5047597;28;20041;-84
2022/01/20 09:50:22;;;;;;;0.13;0.13;;;;;;;7.66;52.03;103041.63;5041135;28;20033;-84
2022/01/20 09:52:50;;;;;;;0.20;0.20;;;;;;;7.73;52.64;103043.59;5046576;28;20067;-84
2022/01/20 09:55:18;;;;;;;0.10;0.10;;;;;;;7.75;51.90;103047.19;5042606;28;20038;-84
2022/01/20 09:57:45;;;;;;;0.10;0.10;;;;;;;7.81;52.19;103053.47;5045877;28;20033;-84
2022/01/20 10:00:15;;;;;;;0.10;0.10;;;;;;;7.89;51.61;103054.59;5042663;28;20037;-85
2022/01/20 10:05:49;;;;;;;0.10;0.10;;;;;;;7.88;49.86;103081.81;5086150;28;20417;-84
2022/01/20 10:08:26;;;;;;;0.10;0.10;;;;;;;7.91;50.52;103100.38;5064524;28;20028;-83
2022/01/20 10:10:59;;;;;;;0.17;0.17;;;;;;;7.89;49.75;103092.41;5070690;28;20032;-84
2022/01/20 10:13:29;;;;;;;0.10;0.10;;;;;;;7.86;50.38;103096.72;5072678;28;20167;-85
2022/01/20 10:16:01;;;;;;;0.10;0.10;;;;;;;7.86;48.76;103088.78;5062593;28;20482;-84
2022/01/20 10:18:29;;;;;;;0.10;0.10;;;;;;;7.68;48.09;103090.06;5055676;28;20037;-84
2022/01/20 10:21:00;;;;;;;0.10;0.10;;;;;;;7.75;47.65;103089.41;5059982;28;20072;-85
2022/01/20 10:23:32;;;;;;;0.10;0.10;;;;;;;7.71;47.81;103100.72;5079564;28;20040;-84
2022/01/20 10:26:19;;;;;;;0.10;0.10;;;;;;;7.77;47.94;103106.16;5060208;28;20033;-85
2022/01/20 10:34:33;;;;;;;0.40;0.40;;;;;;;7.72;49.79;103107.78;5104342;27;20419;-84
2022/01/20 10:37:03;;;;;;;0.10;0.10;;;;;;;7.85;50.07;103111.66;5078173;28;20033;-85
2022/01/20 10:42:15;;;;;;;0.10;0.10;;;;;;;8.21;50.47;103120.53;5075593;28;20478;-86
2022/01/20 10:44:45;;;;;;;0.13;0.13;;;;;;;8.10;51.51;103144.91;5065783;28;20116;-85
2022/01/20 10:47:14;;;;;;;0.10;0.10;;;;;;;7.89;53.42;103133.75;5037475;28;20033;-85
2022/01/20 10:49:42;;;;;;;0.10;0.10;;;;;;;7.90;54.50;103144.34;5046582;28;20510;-85
2022/01/20 10:52:10;;;;;;;0.17;0.17;;;;;;;7.71;55.39;103140.31;5039750;28;20029;-86
2022/01/20 10:54:39;;;;;;;0.20;0.20;;;;;;;7.61;54.74;103148.78;5044848;28;20025;-87
2022/01/20 10:57:08;;;;;;;0.10;0.10;;;;;;;7.46;55.89;103154.50;5040670;28;20392;-86
2022/01/20 10:59:45;;;;;;;1.20;1.20;;;;;;;7.42;56.45;103158.78;5038614;28;20131;-88
2022/01/20 11:02:11;;;;;;;0.10;0.10;;;;;;;7.57;55.70;103154.84;5037373;28;20029;-81
2022/01/20 11:04:39;;;;;;;0.15;0.15;;;;;;;7.77;55.56;103148.38;5040379;28;20086;-87
2022/01/20 11:07:07;;;;;;;0.20;0.20;;;;;;;8.04;54.99;103139.47;5036857;28;20124;-86
2022/01/20 11:09:38;;;;;;;0.15;0.15;;;;;;;8.22;55.13;103143.44;5039700;28;20065;-87
2022/01/20 11:12:04;;;;;;;0.20;0.20;;;;;;;8.33;55.15;103131.41;5039955;28;20044;-88
2022/01/20 11:14:32;;;;;;;0.10;0.10;;;;;;;8.41;54.70;103134.25;5038572;28;20032;-80
2022/01/20 11:16:59;;;;;;;8.27;1.30;;;;;;;8.46;54.50;103129.09;5033242;28;20096;-81
2022/01/20 11:19:27;;;;;;;0.10;0.10;;;;;;;8.50;54.37;103133.63;5040813;28;20041;-86
2022/01/20 11:22:06;;;;;;;0.10;0.10;;;;;;;8.55;54.65;103138.19;5042340;28;20383;-86
2022/01/20 11:24:32;;;;;;;0.10;0.10;;;;;;;8.43;55.67;103144.00;5036585;28;20037;-85
2022/01/20 11:27:01;;;;;;;0.10;0.10;;;;;;;8.35;56.18;103147.28;5039414;28;20033;-86
2022/01/20 11:29:47;;;;;;;0.10;0.10;;;;;;;8.26;56.53;103150.59;5036564;28;20064;-85
2022/01/20 11:35:05;;;;;;;0.10;0.10;;;;;;;7.70;57.13;103138.53;5056612;28;20433;-83
2022/01/20 11:37:34;;;;;;;0.10;0.10;;;;;;;7.40;57.25;103144.69;5033694;28;20029;-84
2022/01/20 11:40:19;;;;;;;0.20;0.20;;;;;;;7.46;57.83;103138.66;5036775;28;20507;-84
2022/01/20 11:43:07;;;;;;;0.10;0.10;;;;;;;7.48;57.91;103133.44;5033967;28;20111;-83
2022/01/20 11:45:37;;;;;;;0.20;0.20;;;;;;;7.24;58.02;103129.22;5038728;28;20037;-84
2022/01/20 11:48:24;;;;;;;0.20;0.20;;;;;;;7.28;57.93;103128.47;5040774;28;20033;-83
2022/01/20 11:51:08;;;;;;;0.20;0.20;;;;;;;7.38;57.76;103127.03;5040097;28;20037;-84
2022/01/20 11:53:41;;;;;;;0.10;0.10;;;;;;;7.33;57.93;103123.31;5035904;28;20396;-82
2022/01/20 11:56:10;;;;;;;0.10;0.10;;;;;;;7.35;57.98;103133.09;5034933;28;20029;-85
2022/01/20 11:58:36;;;;;;;0.10;0.10;;;;;;;7.55;57.46;103119.59;5038329;28;20064;-83
2022/01/20 12:03:51;;;;;;;0.20;0.20;;;;;;;7.95;57.42;103110.19;5052663;28;20410;-86
2022/01/20 12:06:23;;;;;;;0.10;0.10;;;;;;;7.98;56.38;103102.31;5025920;28;20057;-85
2022/01/20 12:09:00;;;;;;;0.10;0.10;;;;;;;8.19;56.76;103101.13;5017640;28;20497;-84
2022/01/20 12:11:37;;;;;;;0.20;0.20;;;;;;;8.16;56.71;103096.66;5019205;28;20088;-84
2022/01/20 12:14:06;;;;;;;0.10;0.10;;;;;;;8.31;56.09;103085.59;5014677;28;20096;-82
2022/01/20 12:16:33;;;;;;;0.10;0.10;;;;;;;8.26;55.78;103082.84;5019348;28;20039;-86
2022/01/20 12:19:01;;;;;;;0.10;0.10;;;;;;;8.17;55.81;103087.84;5022042;28;20743;-87
2022/01/20 12:21:30;;;;;;;0.10;0.10;;;;;;;8.16;55.83;103074.63;5014812;28;20034;-85
2022/01/20 12:23:58;;;;;;;0.10;0.10;;;;;;;8.12;56.01;103072.75;5019830;28;20029;-83
2022/01/20 12:26:24;;;;;;;0.10;0.10;;;;;;;8.07;56.52;103070.91;5045958;22;20107;-83
2022/01/20 12:31:49;;;;;;;0.10;0.10;;;;;;;8.12;56.22;103073.66;5058024;28;20434;-86
2022/01/20 12:34:16;;;;;;;0.10;0.10;;;;;;;8.09;55.90;103077.09;5047515;28;20028;-86
2022/01/20 12:36:52;;;;;;;0.10;0.10;;;;;;;8.20;56.18;103077.38;5045438;28;20026;-86
2022/01/20 12:39:23;;;;;;;0.10;0.10;;;;;;;8.09;56.49;103103.50;5041457;28;20568;-85
2022/01/20 12:41:59;;;;;;;0.10;0.10;;;;;;;7.83;57.34;103102.81;5048921;28;20037;-87
2022/01/20 12:47:28;;;;;;;0.10;0.10;;;;;;;7.42;58.78;103127.13;5154018;27;20414;-85
2022/01/20 12:49:56;;;;;;;0.10;0.10;;;;;;;7.19;60.06;103112.34;5116248;28;20031;-85
2022/01/20 12:52:22;;;;;;;0.10;0.10;;;;;;;7.19;60.75;103107.09;5110194;27;20389;-85
2022/01/20 12:54:50;;;;;;;22.65;1.08;;;;;;;7.29;61.12;103104.78;5108243;28;20065;-85
2022/01/20 12:57:19;;;;;;;0.10;0.10;;;;;;;7.36;60.48;103097.94;5102849;28;20036;-89
2022/01/20 12:59:46;;;;;;;0.55;0.52;;;;;;;7.49;59.48;103090.38;5112404;28;20389;-89
2022/01/20 13:02:19;;;;;;;0.10;0.10;;;;;;;7.53;59.92;103084.38;5107756;28;20406;-89
2022/01/20 13:04:46;;;;;;;0.20;0.20;;;;;;;7.67;59.62;103090.91;5110133;28;20730;-88
2022/01/20 13:07:16;;;;;;;0.90;0.90;;;;;;;7.49;59.37;103112.41;5112849;27;20432;-88